Terminal Aerodrome Forecast
Issued by NWS

Home | Current Version | Previous Version | Text Only | Print | Product List | Glossary On
Versions: 1 2 3 4 5 6 7 8 9 10 11 12 13 14 15 16 17 18 19 20 21
000
FTUS43 KGRR 160800 AAB
TAFLAN
TAF AMD
KLAN 160813Z 1608/1706 32003KT 4SM BR BKN040
     FM160900 VRB03KT 1/4SM FG OVC002
     FM161400 31004KT 2SM BR BKN008
     FM161500 30005KT 4SM BR SCT012 BKN025
     FM161600 29006KT P6SM SCT035=

USA.gov is the U.S. government's official web portal to all federal, state and local government web resources and services.